createdAt,value
2022-08-26T00:02:02.140Z,24.81
2022-08-26T00:04:32.002Z,24.52
2022-08-26T00:06:59.442Z,24.51
2022-08-26T00:09:26.908Z,24.67
2022-08-26T00:11:54.691Z,24.42
2022-08-26T00:14:28.280Z,24.54
2022-08-26T00:16:58.694Z,24.72
2022-08-26T00:19:26.681Z,24.65
2022-08-26T00:21:54.494Z,24.28
2022-08-26T00:24:24.024Z,24.40
2022-08-26T00:26:51.749Z,24.29
2022-08-26T00:29:19.569Z,24.14
2022-08-26T00:31:49.327Z,24.29
2022-08-26T00:34:19.367Z,24.32
2022-08-26T00:36:49.381Z,24.24
2022-08-26T00:39:20.626Z,24.17
2022-08-26T00:41:48.350Z,24.10
2022-08-26T00:44:16.183Z,24.12
2022-08-26T00:46:48.151Z,24.07
2022-08-26T00:49:20.246Z,24.27
2022-08-26T00:51:50.638Z,24.20
2022-08-26T00:54:20.942Z,24.28
2022-08-26T00:56:56.226Z,24.22
2022-08-26T00:59:24.397Z,24.15
2022-08-26T01:01:52.890Z,23.73
2022-08-26T01:04:22.347Z,24.02
2022-08-26T01:06:52.296Z,23.97
2022-08-26T01:09:20.788Z,23.90
2022-08-26T01:11:51.482Z,24.07
2022-08-26T01:14:20.229Z,23.52
2022-08-26T01:16:48.854Z,23.39
2022-08-26T01:19:23.314Z,23.40
2022-08-26T01:22:11.317Z,23.56
2022-08-26T01:24:40.216Z,23.46
2022-08-26T01:27:09.387Z,23.74
2022-08-26T01:29:39.211Z,23.51
2022-08-26T01:32:09.904Z,23.54
2022-08-26T01:34:39.010Z,23.66
2022-08-26T01:37:15.544Z,23.70
2022-08-26T01:39:45.257Z,23.69
2022-08-26T01:42:14.667Z,23.81
2022-08-26T01:44:46.452Z,23.45
2022-08-26T01:47:17.187Z,23.23
2022-08-26T01:49:46.288Z,23.57
2022-08-26T01:52:17.305Z,23.49
2022-08-26T01:54:46.275Z,23.45
2022-08-26T01:57:18.898Z,23.65
2022-08-26T01:59:48.216Z,23.80
2022-08-26T02:02:15.790Z,23.74
2022-08-26T02:04:50.166Z,23.74
2022-08-26T02:07:19.984Z,23.67
2022-08-26T02:09:49.562Z,23.64
2022-08-26T02:12:18.579Z,23.53
2022-08-26T02:14:58.620Z,23.57
2022-08-26T02:17:30.156Z,23.29
2022-08-26T02:19:58.069Z,23.22
2022-08-26T02:22:26.401Z,23.33
2022-08-26T02:24:56.631Z,23.50
2022-08-26T02:27:28.156Z,23.44
2022-08-26T02:30:09.305Z,23.38
2022-08-26T02:32:40.201Z,23.26
2022-08-26T02:35:10.825Z,23.29
2022-08-26T02:37:38.548Z,23.22
2022-08-26T02:40:11.908Z,23.02
2022-08-26T02:42:39.475Z,23.20
2022-08-26T02:45:08.288Z,23.19
2022-08-26T02:47:36.918Z,23.12
2022-08-26T02:50:05.507Z,23.04
2022-08-26T02:52:33.005Z,23.21
2022-08-26T02:55:01.853Z,23.33
2022-08-26T02:57:31.138Z,23.08
2022-08-26T03:00:00.721Z,22.91
2022-08-26T03:02:29.752Z,22.88
2022-08-26T03:05:02.023Z,23.23
2022-08-26T03:07:31.164Z,23.23
2022-08-26T03:09:58.911Z,22.91
2022-08-26T03:12:26.535Z,22.78
2022-08-26T03:14:54.230Z,22.68
2022-08-26T03:17:21.790Z,23.04
2022-08-26T03:19:54.268Z,22.73
2022-08-26T03:22:26.171Z,22.90
2022-08-26T03:24:54.927Z,22.77
2022-08-26T03:27:22.372Z,23.00
2022-08-26T03:30:08.719Z,23.12
2022-08-26T03:32:39.356Z,23.00
2022-08-26T03:35:10.116Z,23.25
2022-08-26T03:37:38.593Z,22.52
2022-08-26T03:40:10.462Z,22.45
2022-08-26T03:42:40.046Z,22.81
2022-08-26T03:45:10.534Z,22.74
2022-08-26T03:47:39.758Z,22.58
2022-08-26T03:50:09.263Z,22.71
2022-08-26T03:52:40.695Z,22.99
2022-08-26T03:55:12.014Z,22.93
2022-08-26T03:57:39.607Z,22.78
2022-08-26T04:00:09.126Z,22.78
2022-08-26T04:02:36.494Z,22.45
2022-08-26T04:05:04.870Z,22.66
2022-08-26T04:07:32.310Z,22.90
2022-08-26T04:10:00.651Z,23.02
2022-08-26T04:12:28.468Z,22.70
2022-08-26T04:14:57.055Z,22.95
2022-08-26T04:17:26.263Z,22.97
2022-08-26T04:19:54.199Z,22.80
2022-08-26T04:22:24.140Z,22.98
2022-08-26T04:24:52.825Z,22.98
2022-08-26T04:27:21.099Z,23.06
2022-08-26T04:29:51.414Z,23.17
2022-08-26T04:32:22.670Z,22.98
2022-08-26T04:34:50.253Z,22.81
2022-08-26T04:37:18.641Z,22.71
2022-08-26T04:39:51.317Z,22.41
2022-08-26T04:42:22.717Z,22.80
2022-08-26T04:44:53.842Z,23.00
2022-08-26T04:47:21.536Z,22.81
2022-08-26T04:49:49.026Z,22.81
2022-08-26T04:52:18.326Z,22.98
2022-08-26T04:54:45.958Z,23.03
2022-08-26T04:57:13.693Z,23.16
2022-08-26T04:59:41.486Z,23.16
2022-08-26T05:02:09.146Z,22.99
2022-08-26T05:04:36.703Z,23.28
2022-08-26T05:07:05.969Z,23.09
2022-08-26T05:09:34.760Z,23.28
2022-08-26T05:12:02.349Z,23.25
2022-08-26T05:14:31.240Z,23.31
2022-08-26T05:16:58.792Z,23.49
2022-08-26T05:19:27.932Z,23.50
2022-08-26T05:21:55.809Z,23.46
2022-08-26T05:24:23.555Z,23.71
2022-08-26T05:26:51.439Z,23.73
2022-08-26T05:29:19.913Z,23.88
2022-08-26T05:31:51.657Z,23.91
2022-08-26T05:34:20.955Z,23.92
2022-08-26T05:36:49.247Z,23.95
2022-08-26T05:39:17.123Z,24.02
2022-08-26T05:41:45.390Z,24.09
2022-08-26T05:44:15.883Z,24.15
2022-08-26T05:46:44.847Z,24.29
2022-08-26T05:49:14.549Z,24.45
2022-08-26T05:51:46.400Z,24.50
2022-08-26T05:54:22.270Z,24.63
2022-08-26T05:56:51.539Z,24.73
2022-08-26T05:59:24.022Z,24.88
2022-08-26T06:01:53.089Z,25.00
2022-08-26T06:04:20.980Z,25.15
2022-08-26T06:06:48.575Z,25.10
2022-08-26T06:09:18.260Z,25.15
2022-08-26T06:11:46.407Z,25.19
2022-08-26T06:14:13.972Z,25.33
2022-08-26T06:16:45.222Z,25.49
2022-08-26T06:19:15.787Z,25.57
2022-08-26T06:21:46.699Z,25.74
2022-08-26T06:24:33.911Z,25.80
2022-08-26T06:27:05.022Z,25.86
2022-08-26T06:29:34.356Z,25.87
2022-08-26T06:32:04.445Z,25.87
2022-08-26T06:34:32.812Z,26.00
2022-08-26T06:37:06.406Z,26.16
2022-08-26T06:39:34.232Z,26.11
2022-08-26T06:42:03.036Z,26.14
2022-08-26T06:44:34.620Z,26.17
2022-08-26T06:47:02.440Z,26.25
2022-08-26T06:49:29.971Z,26.21
2022-08-26T06:51:58.571Z,26.20
2022-08-26T06:54:27.988Z,26.46
2022-08-26T06:56:57.190Z,26.56
2022-08-26T06:59:25.521Z,26.56
2022-08-26T07:01:54.751Z,26.48
2022-08-26T07:04:24.577Z,26.62
2022-08-26T07:06:53.516Z,26.54
2022-08-26T07:09:23.521Z,26.58
2022-08-26T07:11:51.991Z,26.66
2022-08-26T07:14:21.400Z,26.77
2022-08-26T07:16:50.797Z,26.84
2022-08-26T07:19:29.778Z,26.80
2022-08-26T07:22:03.389Z,27.08
2022-08-26T07:24:33.162Z,26.87
2022-08-26T07:27:05.597Z,26.90
2022-08-26T07:29:34.192Z,27.16
2022-08-26T07:32:02.203Z,26.96
2022-08-26T07:34:33.164Z,27.04
2022-08-26T07:37:01.616Z,27.25
2022-08-26T07:39:31.451Z,27.18
2022-08-26T07:42:01.395Z,27.30
2022-08-26T07:44:31.728Z,27.40
2022-08-26T07:46:59.564Z,27.46
2022-08-26T07:49:27.292Z,27.51
2022-08-26T07:51:56.138Z,27.63
2022-08-26T07:54:26.658Z,27.59
2022-08-26T07:56:54.838Z,27.18
2022-08-26T07:59:24.539Z,27.53
2022-08-26T08:01:52.312Z,27.60
2022-08-26T08:04:26.184Z,28.04
2022-08-26T08:06:55.100Z,27.87
2022-08-26T08:09:23.341Z,28.01
2022-08-26T08:11:52.941Z,27.95
2022-08-26T08:14:22.277Z,28.13
2022-08-26T08:16:54.672Z,28.27
2022-08-26T08:19:23.942Z,28.14
2022-08-26T08:21:57.975Z,28.18
2022-08-26T08:24:26.927Z,28.23
2022-08-26T08:26:54.423Z,28.40
2022-08-26T08:29:23.984Z,28.35
2022-08-26T08:31:56.940Z,28.33
2022-08-26T08:34:28.096Z,28.37
2022-08-26T08:36:57.206Z,28.44
2022-08-26T08:39:25.653Z,28.54
2022-08-26T08:42:34.184Z,28.70
2022-08-26T08:45:08.817Z,28.77
2022-08-26T08:47:50.329Z,28.94
2022-08-26T08:50:24.316Z,28.61
2022-08-26T08:53:11.764Z,28.90
2022-08-26T08:55:43.417Z,28.97
2022-08-26T08:58:20.655Z,29.01
2022-08-26T09:00:54.775Z,29.22
2022-08-26T09:03:42.702Z,29.08
2022-08-26T09:06:17.319Z,29.00
2022-08-26T09:08:47.337Z,29.13
2022-08-26T09:11:19.336Z,29.14
2022-08-26T09:13:52.421Z,29.13
2022-08-26T09:16:38.681Z,29.24
2022-08-26T09:19:31.002Z,29.35
2022-08-26T09:22:00.504Z,29.46
2022-08-26T09:24:31.219Z,29.49
2022-08-26T09:26:59.327Z,29.51
2022-08-26T09:29:40.052Z,29.50
2022-08-26T09:32:25.629Z,29.55
2022-08-26T09:34:58.456Z,29.75
2022-08-26T09:37:39.658Z,29.59
2022-08-26T09:40:29.987Z,29.67
2022-08-26T09:43:08.844Z,29.80
2022-08-26T09:45:37.390Z,29.93
2022-08-26T09:48:06.742Z,29.96
2022-08-26T09:50:36.195Z,30.07
2022-08-26T09:53:14.019Z,30.21
2022-08-26T09:55:50.244Z,30.28
2022-08-26T09:58:37.912Z,30.17
2022-08-26T10:01:08.274Z,30.21
2022-08-26T10:03:38.427Z,30.27
2022-08-26T10:06:20.983Z,30.29
2022-08-26T10:08:56.204Z,30.50
2022-08-26T10:11:43.118Z,30.47
2022-08-26T10:14:18.204Z,30.37
2022-08-26T10:16:58.562Z,30.47
2022-08-26T10:19:55.783Z,30.35
2022-08-26T10:22:49.224Z,30.49
2022-08-26T10:25:26.086Z,30.67
2022-08-26T10:28:32.646Z,30.73
2022-08-26T10:31:05.319Z,30.72
2022-08-26T10:33:33.351Z,30.80
2022-08-26T10:36:06.303Z,30.75
2022-08-26T10:38:39.257Z,30.84
2022-08-26T10:41:13.052Z,30.85
2022-08-26T10:43:46.863Z,31.11
2022-08-26T10:46:20.603Z,30.84
2022-08-26T10:48:57.298Z,30.97
2022-08-26T10:51:35.659Z,30.84
2022-08-26T10:54:11.885Z,30.92
2022-08-26T10:56:58.556Z,31.06
2022-08-26T10:59:45.385Z,31.10
2022-08-26T11:02:36.343Z,30.96
2022-08-26T11:05:18.407Z,31.08
2022-08-26T11:07:51.762Z,31.06
2022-08-26T11:10:42.920Z,31.29
2022-08-26T11:13:12.261Z,31.46
2022-08-26T11:15:39.975Z,31.50
2022-08-26T11:18:37.986Z,31.56
2022-08-26T11:21:44.471Z,31.64
2022-08-26T11:24:46.728Z,31.66
2022-08-26T11:27:24.438Z,31.78
2022-08-26T11:30:02.290Z,31.76
2022-08-26T11:32:39.464Z,31.80
2022-08-26T11:35:19.622Z,31.90
2022-08-26T11:37:48.862Z,31.98
2022-08-26T11:40:31.494Z,31.67
2022-08-26T11:43:03.134Z,32.01
2022-08-26T11:45:37.804Z,32.19
2022-08-26T11:48:30.697Z,32.23
2022-08-26T11:51:02.447Z,32.18
2022-08-26T11:53:33.504Z,32.13
2022-08-26T11:56:06.217Z,32.35
2022-08-26T11:58:35.314Z,32.58
2022-08-26T12:01:09.800Z,32.49
2022-08-26T12:03:50.763Z,32.59
2022-08-26T12:06:37.433Z,32.62
2022-08-26T12:09:55.209Z,32.69
2022-08-26T12:12:34.527Z,32.80
2022-08-26T12:15:16.271Z,32.85
2022-08-26T12:17:51.731Z,32.82
2022-08-26T12:20:48.638Z,33.00
2022-08-26T12:23:35.193Z,32.93
2022-08-26T12:26:04.227Z,33.07
2022-08-26T12:28:31.941Z,33.19
2022-08-26T12:31:06.267Z,33.34
2022-08-26T12:33:38.433Z,33.35
2022-08-26T12:36:06.378Z,33.50
2022-08-26T12:38:35.760Z,33.84
2022-08-26T12:41:03.515Z,34.02
2022-08-26T12:43:49.229Z,34.13
2022-08-26T12:46:18.110Z,34.28
2022-08-26T12:48:49.892Z,34.53
2022-08-26T12:51:29.832Z,34.78
2022-08-26T12:53:57.869Z,35.01
2022-08-26T12:56:34.731Z,34.93
2022-08-26T12:59:20.657Z,35.20
2022-08-26T13:01:49.549Z,35.18
2022-08-26T13:04:40.159Z,35.37
2022-08-26T13:07:20.959Z,35.47
2022-08-26T13:09:50.568Z,35.41
2022-08-26T13:12:30.308Z,35.42
2022-08-26T13:14:59.146Z,35.59
2022-08-26T13:17:30.115Z,35.36
2022-08-26T13:20:03.459Z,35.16
2022-08-26T13:22:32.904Z,35.59
2022-08-26T13:25:00.526Z,35.77
2022-08-26T13:27:28.242Z,35.74
2022-08-26T13:29:57.936Z,35.47
2022-08-26T13:32:27.495Z,35.28
2022-08-26T13:34:56.762Z,35.34
2022-08-26T13:37:35.165Z,35.40
2022-08-26T13:40:07.696Z,35.38
2022-08-26T13:42:35.712Z,35.37
2022-08-26T13:45:04.960Z,35.25
2022-08-26T13:47:33.887Z,35.46
2022-08-26T13:50:01.924Z,35.50
2022-08-26T13:52:33.022Z,34.80
2022-08-26T13:55:00.886Z,35.31
2022-08-26T13:57:33.453Z,35.31
2022-08-26T14:00:01.222Z,35.33
2022-08-26T14:02:28.813Z,35.24
2022-08-26T14:04:56.600Z,35.24
2022-08-26T14:07:24.436Z,35.49
2022-08-26T14:09:51.917Z,35.54
2022-08-26T14:12:19.703Z,35.59
2022-08-26T14:14:47.505Z,35.40
2022-08-26T14:17:18.627Z,35.73
2022-08-26T14:19:47.388Z,35.52
2022-08-26T14:22:17.801Z,35.31
2022-08-26T14:24:48.540Z,35.37
2022-08-26T14:27:16.692Z,35.36
2022-08-26T14:29:44.172Z,35.30
2022-08-26T14:32:24.351Z,35.47
2022-08-26T14:34:52.224Z,35.63
2022-08-26T14:37:20.541Z,35.66
2022-08-26T14:39:48.102Z,35.67
2022-08-26T14:42:20.532Z,35.54
2022-08-26T14:44:53.111Z,35.52
2022-08-26T14:47:21.154Z,35.75
2022-08-26T14:49:48.790Z,35.70
2022-08-26T14:52:17.328Z,35.57
2022-08-26T14:54:45.545Z,35.47
2022-08-26T14:57:13.800Z,35.37
2022-08-26T14:59:49.697Z,35.39
2022-08-26T15:02:27.804Z,35.42
2022-08-26T15:05:02.671Z,35.37
2022-08-26T15:07:30.925Z,35.20
2022-08-26T15:09:58.643Z,35.13
2022-08-26T15:12:26.678Z,35.21
2022-08-26T15:14:54.922Z,35.17
2022-08-26T15:17:22.444Z,34.89
2022-08-26T15:19:50.235Z,34.94
2022-08-26T15:22:18.274Z,35.05
2022-08-26T15:24:45.766Z,35.04
2022-08-26T15:27:13.231Z,34.99
2022-08-26T15:29:41.595Z,34.91
2022-08-26T15:32:09.855Z,34.72
2022-08-26T15:34:37.589Z,34.72
2022-08-26T15:37:06.265Z,34.72
2022-08-26T15:39:34.471Z,34.62
2022-08-26T15:42:02.255Z,34.63
2022-08-26T15:44:29.988Z,34.28
2022-08-26T15:46:58.761Z,34.37
2022-08-26T15:49:27.748Z,34.30
2022-08-26T15:51:55.751Z,34.21
2022-08-26T15:54:23.785Z,34.23
2022-08-26T15:56:53.120Z,34.00
2022-08-26T15:59:22.203Z,33.96
2022-08-26T16:01:50.858Z,33.99
2022-08-26T16:04:18.977Z,33.88
2022-08-26T16:06:50.094Z,33.91
2022-08-26T16:09:19.040Z,33.82
2022-08-26T16:11:47.028Z,33.28
2022-08-26T16:14:15.928Z,33.54
2022-08-26T16:16:43.578Z,33.55
2022-08-26T16:19:13.345Z,33.46
2022-08-26T16:21:41.531Z,33.35
2022-08-26T16:24:09.490Z,33.23
2022-08-26T16:26:39.037Z,33.06
2022-08-26T16:29:09.020Z,33.01
2022-08-26T16:31:38.331Z,32.88
2022-08-26T16:34:09.224Z,32.73
2022-08-26T16:36:38.482Z,32.60
2022-08-26T16:39:07.934Z,32.50
2022-08-26T16:41:35.817Z,32.35
2022-08-26T16:44:04.368Z,32.15
2022-08-26T16:46:32.372Z,32.08
2022-08-26T16:49:01.624Z,31.84
2022-08-26T16:51:29.764Z,31.71
2022-08-26T16:54:02.787Z,31.63
2022-08-26T16:56:34.001Z,31.38
2022-08-26T16:59:07.463Z,31.34
2022-08-26T17:01:35.561Z,31.53
2022-08-26T17:04:10.000Z,31.64
2022-08-26T17:06:38.732Z,31.47
2022-08-26T17:09:06.802Z,31.42
2022-08-26T17:11:38.347Z,31.15
2022-08-26T17:14:13.554Z,31.27
2022-08-26T17:16:41.133Z,31.02
2022-08-26T17:19:09.111Z,30.81
2022-08-26T17:21:38.989Z,30.82
2022-08-26T17:24:06.932Z,30.73
2022-08-26T17:26:35.009Z,30.51
2022-08-26T17:29:02.438Z,30.27
2022-08-26T17:31:30.122Z,30.10
2022-08-26T17:33:58.163Z,29.97
2022-08-26T17:36:28.462Z,29.65
2022-08-26T17:38:57.542Z,29.90
2022-08-26T17:41:26.172Z,29.74
2022-08-26T17:43:53.691Z,29.53
2022-08-26T17:46:21.336Z,29.55
2022-08-26T17:48:49.249Z,29.59
2022-08-26T17:51:19.269Z,29.36
2022-08-26T17:53:48.085Z,29.34
2022-08-26T17:56:19.527Z,29.45
2022-08-26T17:58:51.377Z,29.25
2022-08-26T18:01:23.636Z,29.29
2022-08-26T18:04:06.062Z,29.00
2022-08-26T18:06:37.034Z,28.83
2022-08-26T18:09:08.929Z,28.85
2022-08-26T18:11:38.844Z,28.96
2022-08-26T18:14:06.825Z,28.73
2022-08-26T18:16:38.379Z,28.78
2022-08-26T18:19:06.390Z,28.81
2022-08-26T18:21:34.419Z,28.45
2022-08-26T18:24:01.857Z,28.56
2022-08-26T18:26:30.408Z,28.40
2022-08-26T18:28:58.220Z,28.18
2022-08-26T18:31:26.042Z,28.47
2022-08-26T18:33:53.425Z,28.36
2022-08-26T18:36:25.777Z,28.28
2022-08-26T18:38:54.258Z,28.00
2022-08-26T18:41:23.194Z,28.14
2022-08-26T18:43:50.954Z,28.04
2022-08-26T18:46:18.633Z,28.04
2022-08-26T18:48:50.903Z,27.98
2022-08-26T18:51:19.613Z,27.85
2022-08-26T18:53:47.850Z,27.81
2022-08-26T18:56:18.583Z,27.80
2022-08-26T18:58:47.259Z,27.41
2022-08-26T19:01:15.340Z,27.66
2022-08-26T19:03:43.171Z,27.32
2022-08-26T19:06:15.482Z,27.51
2022-08-26T19:08:44.760Z,27.51
2022-08-26T19:11:13.857Z,27.33
2022-08-26T19:13:45.101Z,27.36
2022-08-26T19:16:23.350Z,27.51
2022-08-26T19:18:54.745Z,27.34
2022-08-26T19:21:24.375Z,27.08
2022-08-26T19:23:52.462Z,26.76
2022-08-26T19:26:20.524Z,26.96
2022-08-26T19:28:49.878Z,26.70
2022-08-26T19:31:17.533Z,27.01
2022-08-26T19:33:45.951Z,26.78
2022-08-26T19:36:18.618Z,26.68
2022-08-26T19:38:48.094Z,26.79
2022-08-26T19:41:18.486Z,26.58
2022-08-26T19:43:46.291Z,26.39
2022-08-26T19:46:23.509Z,26.62
2022-08-26T19:48:54.119Z,26.65
2022-08-26T19:51:28.405Z,26.81
2022-08-26T19:53:57.218Z,26.39
2022-08-26T19:56:28.478Z,26.57
2022-08-26T19:58:57.141Z,26.48
2022-08-26T20:01:28.650Z,26.26
2022-08-26T20:03:57.674Z,26.12
2022-08-26T20:06:25.402Z,26.37
2022-08-26T20:08:55.010Z,26.06
2022-08-26T20:11:24.953Z,26.29
2022-08-26T20:13:52.771Z,26.16
2022-08-26T20:16:20.314Z,26.23
2022-08-26T20:19:07.244Z,26.09
2022-08-26T20:21:41.164Z,25.54
2022-08-26T20:24:12.091Z,25.71
2022-08-26T20:27:17.645Z,26.03
2022-08-26T20:29:38.734Z,25.92
2022-08-26T20:32:07.588Z,26.12
2022-08-26T20:34:43.021Z,25.80
2022-08-26T20:37:24.120Z,25.66
2022-08-26T20:40:15.361Z,26.05
2022-08-26T20:42:47.974Z,25.98
2022-08-26T20:45:46.573Z,25.94
2022-08-26T20:48:33.981Z,25.78
2022-08-26T20:51:02.420Z,25.96
2022-08-26T20:53:32.652Z,25.94
2022-08-26T20:56:01.215Z,25.92
2022-08-26T20:58:38.538Z,25.89
2022-08-26T21:04:01.127Z,25.90
2022-08-26T21:06:52.769Z,25.86
2022-08-26T21:09:27.016Z,25.89
2022-08-26T21:11:56.413Z,25.81
2022-08-26T21:14:39.184Z,25.79
2022-08-26T21:17:12.878Z,25.79
2022-08-26T21:20:12.324Z,25.59
2022-08-26T21:22:45.233Z,25.74
2022-08-26T21:25:14.821Z,25.65
2022-08-26T21:27:42.407Z,25.58
2022-08-26T21:30:10.319Z,25.69
2022-08-26T21:32:38.204Z,25.69
2022-08-26T21:35:05.966Z,25.50
2022-08-26T21:37:34.557Z,25.69
2022-08-26T21:40:04.217Z,25.74
2022-08-26T21:42:33.106Z,25.67
2022-08-26T21:45:03.399Z,25.54
2022-08-26T21:47:33.103Z,25.60
2022-08-26T21:50:00.839Z,25.58
2022-08-26T21:52:28.503Z,25.57
2022-08-26T21:54:57.444Z,25.66
2022-08-26T21:57:24.916Z,25.68
2022-08-26T21:59:54.004Z,25.61
2022-08-26T22:02:22.771Z,25.43
2022-08-26T22:04:51.248Z,25.53
2022-08-26T22:07:24.950Z,25.60
2022-08-26T22:10:03.004Z,25.37
2022-08-26T22:12:31.965Z,25.62
2022-08-26T22:15:03.538Z,25.53
2022-08-26T22:17:31.225Z,25.47
2022-08-26T22:19:58.870Z,25.57
2022-08-26T22:22:28.734Z,25.55
2022-08-26T22:24:56.155Z,25.46
2022-08-26T22:27:23.712Z,25.38
2022-08-26T22:29:51.661Z,25.44
2022-08-26T22:32:19.224Z,25.44
2022-08-26T22:34:46.975Z,25.43
2022-08-26T22:37:14.978Z,25.37
2022-08-26T22:39:42.527Z,25.01
2022-08-26T22:42:10.666Z,25.27
2022-08-26T22:44:38.477Z,25.18
2022-08-26T22:47:06.700Z,25.07
2022-08-26T22:49:34.200Z,25.16
2022-08-26T22:52:02.070Z,25.15
2022-08-26T22:54:29.665Z,25.25
2022-08-26T22:56:57.144Z,25.22
2022-08-26T22:59:24.875Z,25.06
2022-08-26T23:01:52.619Z,25.08
2022-08-26T23:04:20.167Z,24.80
2022-08-26T23:06:48.153Z,24.86
2022-08-26T23:09:18.244Z,25.01
2022-08-26T23:11:46.474Z,24.99
2022-08-26T23:14:14.522Z,24.95
2022-08-26T23:16:41.976Z,24.72
2022-08-26T23:19:09.990Z,24.76
2022-08-26T23:21:37.892Z,24.57
2022-08-26T23:24:06.031Z,24.43
2022-08-26T23:26:33.710Z,24.28
2022-08-26T23:29:01.521Z,24.52
2022-08-26T23:31:28.962Z,24.50
2022-08-26T23:34:14.941Z,24.63
2022-08-26T23:36:43.379Z,24.56
2022-08-26T23:39:14.228Z,24.40
2022-08-26T23:41:41.732Z,24.44
2022-08-26T23:44:09.432Z,24.52
2022-08-26T23:46:36.948Z,24.48
2022-08-26T23:49:06.075Z,24.17
2022-08-26T23:51:52.642Z,24.28
2022-08-26T23:54:19.960Z,24.23
2022-08-26T23:56:47.712Z,24.17
2022-08-26T23:59:15.638Z,24.29
